Time;durP1;ratioP1;P1;durP2;ratioP2;P2;SDS_P1;SDS_P2;PMS_P1;PMS_P2;Temp;Humidity;BMP_temperature;BMP_pressure;BME280_temperature;BME280_humidity;BME280_pressure;Samples;Min_cycle;Max_cycle;Signal;HPM_P1;HPM_P2
2020/12/30 00:01:00;;;;;;;38.15;20.77;;;;;;;5.63;83.59;101306.77;1775087;79;21484;-76
2020/12/30 00:03:28;;;;;;;33.30;20.12;;;;;;;5.66;83.41;101303.60;1775146;79;20994;-76
2020/12/30 00:05:57;;;;;;;34.20;21.75;;;;;;;5.66;83.53;101310.11;1775077;79;20967;-75
2020/12/30 00:08:24;;;;;;;39.23;22.22;;;;;;;5.68;83.42;101303.56;1775025;79;21110;-75
2020/12/30 00:10:53;;;;;;;32.90;19.75;;;;;;;5.69;83.51;101298.75;1775246;79;20972;-75
2020/12/30 00:13:21;;;;;;;33.63;21.97;;;;;;;5.70;83.51;101307.83;1774838;79;21050;-75
2020/12/30 00:15:49;;;;;;;33.15;20.68;;;;;;;5.70;83.53;101307.83;1775069;79;21023;-76
2020/12/30 00:18:17;;;;;;;35.05;21.95;;;;;;;5.73;83.45;101307.73;1737972;81;22681;-76
2020/12/30 00:20:45;;;;;;;33.05;21.07;;;;;;;5.76;83.37;101312.86;1708577;83;20987;-75
2020/12/30 00:23:12;;;;;;;31.20;19.62;;;;;;;5.78;83.28;101310.20;1719310;82;21397;-74
2020/12/30 00:25:40;;;;;;;31.23;20.50;;;;;;;5.78;83.36;101312.80;1729084;82;21023;-76
2020/12/30 00:28:08;;;;;;;31.97;20.37;;;;;;;5.78;83.37;101314.98;1719534;82;20983;-74
2020/12/30 00:30:37;;;;;;;30.15;19.92;;;;;;;5.77;83.54;101313.25;1708248;83;20986;-75
2020/12/30 00:33:04;;;;;;;33.25;22.27;;;;;;;5.80;83.51;101313.61;1774901;79;20967;-75
2020/12/30 00:35:32;;;;;;;31.73;20.05;;;;;;;5.83;83.50;101316.14;1774952;79;21026;-73
2020/12/30 00:38:01;;;;;;;34.67;22.82;;;;;;;5.85;83.39;101314.77;1774951;79;20963;-77
2020/12/30 00:41:54;;;;;;;36.30;21.70;;;;;;;5.90;83.39;101307.25;1813533;79;22719;-74
2020/12/30 00:44:23;;;;;;;30.95;20.23;;;;;;;5.85;83.40;101305.23;1755541;80;20961;-75
2020/12/30 00:46:54;;;;;;;36.23;23.87;;;;;;;5.85;83.39;101304.36;1755708;80;21457;-75
2020/12/30 00:49:22;;;;;;;32.55;19.17;;;;;;;5.86;83.30;101299.58;1755523;80;20966;-76
2020/12/30 00:51:56;;;;;;;28.65;20.15;;;;;;;5.87;83.33;101299.55;1755609;80;21375;-74
2020/12/30 00:54:25;;;;;;;33.67;21.77;;;;;;;5.86;83.39;101304.78;1755698;80;20957;-75
2020/12/30 00:56:53;;;;;;;32.30;20.75;;;;;;;5.87;83.42;101303.88;1755552;80;20965;-75
2020/12/30 00:59:21;;;;;;;33.80;21.33;;;;;;;5.88;83.51;101297.33;1729115;80;21113;-74
2020/12/30 01:01:53;;;;;;;34.43;20.95;;;;;;;5.92;83.41;101306.75;1725483;81;20994;-74
2020/12/30 01:04:23;;;;;;;37.65;20.62;;;;;;;5.96;83.32;101298.45;1725166;81;20948;-74
2020/12/30 01:06:53;;;;;;;33.02;20.72;;;;;;;5.98;83.08;101301.41;1726956;81;20949;-73
2020/12/30 01:09:24;;;;;;;30.72;19.67;;;;;;;5.97;83.07;101297.54;1728813;81;20998;-73
2020/12/30 01:11:52;;;;;;;37.85;22.98;;;;;;;5.98;83.15;101301.41;1727743;81;21182;-75
2020/12/30 01:14:20;;;;;;;37.10;21.73;;;;;;;5.99;83.17;101301.80;1726022;81;20962;-74
2020/12/30 01:16:51;;;;;;;32.28;19.85;;;;;;;6.00;83.12;101309.16;1726455;81;20978;-75
2020/12/30 01:19:20;;;;;;;37.58;22.90;;;;;;;6.00;83.04;101318.27;1725540;81;21049;-75
2020/12/30 01:21:48;;;;;;;39.05;23.22;;;;;;;6.01;83.02;101316.08;1725617;81;20970;-76
2020/12/30 01:24:16;;;;;;;35.75;24.20;;;;;;;6.00;82.89;101314.36;1725229;81;21154;-75
2020/12/30 01:26:47;;;;;;;34.67;22.17;;;;;;;5.99;82.87;101312.21;1725496;81;21531;-75
2020/12/30 01:29:14;;;;;;;30.50;20.45;;;;;;;5.99;82.87;101313.97;1725621;80;20942;-75
2020/12/30 01:31:42;;;;;;;33.40;20.82;;;;;;;6.00;82.96;101310.45;1725527;81;21392;-75
2020/12/30 01:34:10;;;;;;;34.27;22.22;;;;;;;6.01;82.98;101305.67;1725463;81;20954;-76
2020/12/30 01:36:39;;;;;;;34.25;23.65;;;;;;;6.00;82.98;101303.52;1702038;81;21998;-75
2020/12/30 01:39:07;;;;;;;33.92;23.77;;;;;;;6.04;82.84;101308.63;1725351;81;20974;-75
2020/12/30 01:41:34;;;;;;;34.03;21.20;;;;;;;6.05;82.68;101305.10;1719258;82;20927;-74
2020/12/30 01:44:07;;;;;;;32.65;20.68;;;;;;;6.07;82.57;101311.13;1717956;82;21006;-74
2020/12/30 01:46:43;;;;;;;27.73;18.42;;;;;;;6.05;82.54;101297.30;1717982;82;21192;-76
2020/12/30 01:49:20;;;;;;;30.85;20.05;;;;;;;6.04;82.58;101308.63;1718006;82;21881;-74
2020/12/30 01:51:51;;;;;;;34.13;21.93;;;;;;;6.01;82.61;101306.52;1717548;82;21045;-74
2020/12/30 01:54:20;;;;;;;42.62;26.23;;;;;;;6.02;82.62;101302.15;1717323;81;21043;-74
2020/12/30 01:56:48;;;;;;;38.55;24.35;;;;;;;6.03;82.55;101301.72;1717428;82;20982;-74
2020/12/30 01:59:17;;;;;;;35.15;23.85;;;;;;;5.99;82.50;101296.59;1717410;82;21587;-75
2020/12/30 02:02:06;;;;;;;35.15;24.18;;;;;;;6.00;82.44;101290.50;1717355;82;22184;-75
2020/12/30 02:04:53;;;;;;;30.25;20.82;;;;;;;6.00;82.42;101291.80;1717406;82;20970;-75
2020/12/30 02:07:23;;;;;;;31.65;20.90;;;;;;;5.97;82.41;101292.33;1717478;82;20951;-75
2020/12/30 02:09:52;;;;;;;33.80;19.35;;;;;;;5.91;82.53;101287.27;1717243;82;20958;-76
2020/12/30 02:12:20;;;;;;;33.13;21.30;;;;;;;5.86;82.72;101283.96;1717400;81;20903;-75
2020/12/30 02:14:50;;;;;;;34.27;21.42;;;;;;;5.87;82.78;101277.84;1717359;82;21162;-75
2020/12/30 02:17:18;;;;;;;30.32;20.17;;;;;;;5.87;82.72;101275.23;1717361;82;21006;-75
2020/12/30 02:19:46;;;;;;;30.77;20.77;;;;;;;5.90;82.70;101276.02;1717318;82;21026;-73
2020/12/30 02:22:18;;;;;;;29.95;20.37;;;;;;;5.95;82.59;101273.30;1717376;82;20926;-75
2020/12/30 02:24:47;;;;;;;31.65;19.52;;;;;;;5.98;82.52;101275.38;1717370;82;21001;-74
2020/12/30 02:27:15;;;;;;;22.45;16.23;;;;;;;6.01;82.40;101281.78;1717513;82;22312;-75
2020/12/30 02:29:43;;;;;;;32.28;21.35;;;;;;;6.04;82.23;101293.84;1717338;82;20959;-75
2020/12/30 02:32:11;;;;;;;31.42;18.80;;;;;;;6.05;82.16;101300.77;1717426;80;21495;-74
2020/12/30 02:34:39;;;;;;;29.02;18.62;;;;;;;6.07;81.91;101304.19;1717414;82;20930;-76
2020/12/30 02:37:07;;;;;;;28.65;18.75;;;;;;;6.08;81.82;101298.06;1717822;82;21444;-75
2020/12/30 02:39:35;;;;;;;29.23;18.27;;;;;;;6.09;81.81;101298.91;1717338;80;21157;-76
2020/12/30 02:42:04;;;;;;;24.72;16.00;;;;;;;6.13;81.74;101291.41;1717285;82;20970;-74
2020/12/30 02:44:32;;;;;;;30.77;20.25;;;;;;;6.15;81.53;101294.37;1717356;82;20946;-75
2020/12/30 02:47:00;;;;;;;30.85;18.42;;;;;;;6.16;81.43;101295.25;1717352;80;21022;-74
2020/12/30 02:49:28;;;;;;;28.65;18.80;;;;;;;6.15;81.30;101283.11;1717434;82;21006;-75
2020/12/30 02:51:55;;;;;;;26.02;17.52;;;;;;;6.13;81.28;101288.35;1717353;82;21626;-74
2020/12/30 02:54:24;;;;;;;24.87;17.23;;;;;;;6.15;81.15;101280.50;1717321;81;20978;-74
2020/12/30 02:56:51;;;;;;;23.70;17.15;;;;;;;6.15;81.10;101277.90;1717385;82;20962;-75
2020/12/30 02:59:19;;;;;;;31.87;19.50;;;;;;;6.15;81.04;101273.53;1717452;82;21456;-76
2020/12/30 03:01:47;;;;;;;26.25;17.07;;;;;;;6.15;81.00;101280.05;1717408;82;21022;-75
2020/12/30 03:04:16;;;;;;;30.60;17.75;;;;;;;6.14;81.01;101286.17;1717226;82;21237;-74
2020/12/30 03:06:44;;;;;;;28.32;18.17;;;;;;;6.17;80.95;101282.61;1717335;82;20983;-75
2020/12/30 03:09:12;;;;;;;28.60;18.20;;;;;;;6.18;80.86;101285.18;1693452;82;20945;-75
2020/12/30 03:11:42;;;;;;;28.65;18.50;;;;;;;6.21;80.72;101278.56;1717072;82;20970;-74
2020/12/30 03:14:10;;;;;;;26.87;17.67;;;;;;;6.20;80.66;101287.29;1717413;82;21115;-75
2020/12/30 03:16:38;;;;;;;30.75;18.48;;;;;;;6.19;80.61;101286.02;1717438;82;21163;-74
2020/12/30 03:19:06;;;;;;;30.23;20.62;;;;;;;6.18;80.53;101293.41;1717684;82;21491;-74
2020/12/30 03:21:35;;;;;;;32.13;17.92;;;;;;;6.15;80.56;101287.02;1717298;82;20959;-74
2020/12/30 03:24:03;;;;;;;28.62;17.87;;;;;;;6.13;80.49;101284.91;1717371;82;20959;-74
2020/12/30 03:26:32;;;;;;;25.55;18.23;;;;;;;6.13;80.46;101288.35;1717452;82;20958;-75
2020/12/30 03:29:01;;;;;;;30.00;17.73;;;;;;;6.09;80.47;101285.47;1717494;82;21988;-74
2020/12/30 03:31:30;;;;;;;31.25;18.17;;;;;;;6.08;80.57;101289.41;1717343;82;21050;-75
2020/12/30 03:33:58;;;;;;;33.80;19.40;;;;;;;6.06;80.60;101294.66;1717368;82;21062;-73
2020/12/30 03:36:27;;;;;;;34.60;21.40;;;;;;;6.04;80.61;101295.14;1719012;82;21066;-74
2020/12/30 03:38:54;;;;;;;37.17;20.20;;;;;;;6.05;80.58;101293.39;1717273;82;20978;-75
2020/12/30 03:41:23;;;;;;;29.48;18.02;;;;;;;6.03;80.58;101289.55;1719799;82;21963;-76
2020/12/30 03:43:51;;;;;;;33.23;17.60;;;;;;;6.00;80.58;101290.50;1722037;82;20986;-76
2020/12/30 03:46:19;;;;;;;26.50;16.87;;;;;;;5.98;80.62;101292.30;1722290;82;21545;-76
2020/12/30 03:48:47;;;;;;;32.75;18.67;;;;;;;5.98;80.73;101297.50;1722095;82;20986;-76
2020/12/30 03:51:15;;;;;;;29.42;19.12;;;;;;;5.98;80.76;101297.92;1722195;82;21049;-74
2020/12/30 03:53:43;;;;;;;26.68;17.92;;;;;;;5.96;80.72;101290.64;1722185;82;22150;-75
2020/12/30 03:56:11;;;;;;;32.10;18.40;;;;;;;5.97;80.74;101303.59;1722271;82;21503;-74
2020/12/30 03:58:39;;;;;;;27.42;17.07;;;;;;;6.00;80.67;101302.22;1722197;82;20930;-75
2020/12/30 04:01:09;;;;;;;26.02;17.50;;;;;;;6.03;80.57;101305.63;1719160;82;20978;-76
2020/12/30 04:03:37;;;;;;;27.05;19.00;;;;;;;6.04;80.54;101306.02;1722159;82;21021;-76
2020/12/30 04:06:05;;;;;;;28.23;16.75;;;;;;;6.02;80.57;101307.36;1722333;82;21907;-75
2020/12/30 04:08:34;;;;;;;31.52;17.95;;;;;;;6.03;80.46;101297.36;1722137;82;21411;-76
2020/12/30 04:11:02;;;;;;;26.87;19.07;;;;;;;6.01;80.42;101309.11;1722068;82;20914;-75
2020/12/30 04:13:31;;;;;;;26.23;17.23;;;;;;;5.99;80.35;101316.58;1749450;82;20938;-74
2020/12/30 04:15:59;;;;;;;27.13;18.02;;;;;;;5.98;80.32;101310.95;1722230;82;21560;-75
2020/12/30 04:18:27;;;;;;;26.75;17.57;;;;;;;5.93;80.36;101323.22;1722148;82;21159;-73
2020/12/30 04:20:54;;;;;;;22.40;16.60;;;;;;;5.90;80.46;101313.75;1722105;82;20938;-74
2020/12/30 04:23:22;;;;;;;26.60;16.75;;;;;;;5.89;80.47;101315.97;1722085;82;20927;-74
2020/12/30 04:25:50;;;;;;;27.95;16.37;;;;;;;5.89;80.48;101312.06;1722119;82;20962;-76
2020/12/30 04:28:18;;;;;;;26.35;16.77;;;;;;;5.87;80.43;101317.77;1722107;82;20974;-75
2020/12/30 04:30:46;;;;;;;24.67;17.02;;;;;;;5.87;80.40;101319.48;1722114;82;21160;-75
2020/12/30 04:33:14;;;;;;;24.52;16.48;;;;;;;5.87;80.33;101320.37;1722177;82;20962;-74
2020/12/30 04:35:42;;;;;;;24.67;15.90;;;;;;;5.88;80.24;101323.36;1722235;82;21515;-75
2020/12/30 04:38:14;;;;;;;25.20;16.60;;;;;;;5.86;80.20;101321.70;1722080;82;20923;-77
2020/12/30 04:40:46;;;;;;;23.85;16.35;;;;;;;5.83;80.28;101321.34;1721023;82;20923;-77
2020/12/30 04:43:28;;;;;;;26.40;17.90;;;;;;;5.81;80.25;101319.23;1720178;82;21126;-76
2020/12/30 04:46:29;;;;;;;28.00;17.73;;;;;;;5.79;80.25;101323.17;1722622;82;20966;-77
2020/12/30 04:49:05;;;;;;;24.90;16.20;;;;;;;5.80;80.17;101327.92;1723293;82;20955;-75
2020/12/30 04:51:35;;;;;;;23.62;14.85;;;;;;;5.78;80.14;101324.51;1721856;82;21401;-74
2020/12/30 04:54:03;;;;;;;27.25;16.30;;;;;;;5.76;80.18;101322.42;1721747;81;20967;-76
2020/12/30 04:56:51;;;;;;;23.32;15.25;;;;;;;5.73;80.27;101321.19;1740374;81;21427;-76
2020/12/30 04:59:19;;;;;;;25.85;16.25;;;;;;;5.74;80.26;101325.52;1709010;82;21022;-76
2020/12/30 05:02:13;;;;;;;26.17;16.87;;;;;;;5.74;80.19;101339.84;1714802;82;21038;-79
2020/12/30 05:04:48;;;;;;;27.52;18.20;;;;;;;5.75;80.12;101344.12;1739566;82;21421;-76
2020/12/30 05:07:17;;;;;;;25.62;16.90;;;;;;;5.77;80.05;101344.94;1722433;82;21038;-77
2020/12/30 05:09:45;;;;;;;24.18;15.58;;;;;;;5.79;79.99;101351.80;1722274;81;21185;-76
2020/12/30 05:12:17;;;;;;;28.10;16.95;;;;;;;5.77;79.97;101348.39;1722048;82;21409;-76
2020/12/30 05:14:45;;;;;;;26.00;16.62;;;;;;;5.79;79.91;101349.20;1721828;82;20927;-76
2020/12/30 05:17:14;;;;;;;25.25;16.90;;;;;;;5.80;79.86;101352.22;1721415;82;21133;-75
2020/12/30 05:19:46;;;;;;;26.95;16.82;;;;;;;5.81;79.77;101345.27;1720791;82;20983;-77
2020/12/30 05:22:19;;;;;;;26.52;16.48;;;;;;;5.83;79.57;101356.48;1720664;82;21115;-77
2020/12/30 05:24:48;;;;;;;26.95;16.40;;;;;;;5.83;79.46;101355.19;1720435;82;20998;-75
2020/12/30 05:27:16;;;;;;;25.00;16.20;;;;;;;5.80;79.48;101366.54;1720396;82;21635;-76
2020/12/30 05:29:49;;;;;;;23.98;16.23;;;;;;;5.79;79.51;101363.97;1720461;82;20982;-75
2020/12/30 05:32:17;;;;;;;24.70;16.70;;;;;;;5.78;79.52;101377.44;1720283;82;21038;-77
2020/12/30 05:34:46;;;;;;;27.67;17.73;;;;;;;5.78;79.44;101390.45;1720582;82;21308;-77
2020/12/30 05:37:22;;;;;;;24.23;16.73;;;;;;;5.77;79.37;101383.98;1739536;82;21045;-79
2020/12/30 05:40:01;;;;;;;26.60;16.77;;;;;;;5.78;79.24;101386.55;1720647;82;20982;-79
2020/12/30 05:42:26;;;;;;;21.68;14.93;;;;;;;5.77;79.20;101382.22;1744773;82;21183;-76
2020/12/30 05:44:59;;;;;;;21.23;14.47;;;;;;;5.76;79.18;101386.19;1722275;82;20942;-76
2020/12/30 05:47:26;;;;;;;21.73;14.65;;;;;;;5.73;79.20;101386.25;1721864;82;22614;-76
2020/12/30 05:49:55;;;;;;;27.30;16.93;;;;;;;5.71;79.22;101388.04;1722077;82;20989;-75
2020/12/30 05:52:26;;;;;;;26.95;16.17;;;;;;;5.68;79.20;101388.98;1722382;82;21353;-77
2020/12/30 05:55:04;;;;;;;29.35;17.65;;;;;;;5.65;79.21;101383.00;1747690;80;20943;-75
2020/12/30 05:57:34;;;;;;;29.23;17.42;;;;;;;5.65;79.15;101389.08;1722263;82;20978;-75
2020/12/30 06:00:08;;;;;;;29.48;16.37;;;;;;;5.58;79.23;101366.70;1722283;82;21228;-75
2020/12/30 06:02:44;;;;;;;27.80;17.20;;;;;;;5.58;79.34;101365.40;1722243;82;21002;-77
2020/12/30 06:05:22;;;;;;;27.30;16.60;;;;;;;5.56;79.44;101375.02;1722261;82;20959;-76
2020/12/30 06:07:53;;;;;;;28.92;17.05;;;;;;;5.56;79.48;101376.33;1722192;82;20963;-76
2020/12/30 06:10:22;;;;;;;28.02;18.40;;;;;;;5.55;79.50;101374.59;1722346;82;20983;-76
2020/12/30 06:12:58;;;;;;;32.60;18.57;;;;;;;5.55;79.49;101374.59;1721936;82;20966;-76
2020/12/30 06:15:28;;;;;;;24.43;16.45;;;;;;;5.58;79.41;101375.38;1722303;82;21531;-77
2020/12/30 06:18:01;;;;;;;23.15;16.15;;;;;;;5.60;79.37;101374.89;1747572;82;21073;-75
2020/12/30 06:20:40;;;;;;;25.37;16.77;;;;;;;5.63;79.32;101383.52;1747729;82;20974;-76
2020/12/30 06:23:12;;;;;;;26.68;18.10;;;;;;;5.63;79.33;101382.22;1722170;82;21018;-78
2020/12/30 06:25:41;;;;;;;25.30;16.73;;;;;;;5.66;79.25;101397.73;1722355;82;22154;-74
2020/12/30 06:28:13;;;;;;;26.82;17.77;;;;;;;5.67;79.18;101399.00;1722223;82;20978;-75
2020/12/30 06:30:47;;;;;;;29.00;18.23;;;;;;;5.69;79.13;101395.03;1722294;82;20923;-77
2020/12/30 06:33:16;;;;;;;25.62;17.50;;;;;;;5.71;79.03;101399.75;1722336;82;21057;-76
2020/12/30 06:35:45;;;;;;;23.70;16.17;;;;;;;5.74;78.99;101410.94;1722154;82;20970;-75
2020/12/30 06:38:30;;;;;;;26.25;17.65;;;;;;;5.76;78.89;101403.11;1722324;82;22096;-75
2020/12/30 06:41:05;;;;;;;28.50;17.25;;;;;;;5.79;78.89;101409.06;1721972;82;20998;-77
2020/12/30 06:43:48;;;;;;;24.77;16.62;;;;;;;5.84;78.89;101405.48;1720425;82;20973;-75
2020/12/30 06:46:35;;;;;;;27.05;16.73;;;;;;;5.89;78.65;101393.19;1720158;82;21022;-77
2020/12/30 06:49:05;;;;;;;27.80;16.97;;;;;;;5.93;78.49;101396.11;1739482;81;20947;-76
2020/12/30 06:51:39;;;;;;;26.25;17.60;;;;;;;5.97;78.36;101408.18;1720330;82;20951;-78
2020/12/30 06:54:07;;;;;;;28.47;17.73;;;;;;;6.01;78.16;101400.70;1720410;82;21049;-75
2020/12/30 06:56:43;;;;;;;26.25;17.67;;;;;;;6.04;78.18;101394.55;1720200;82;20966;-77
2020/12/30 06:59:18;;;;;;;20.95;16.10;;;;;;;6.06;78.03;101394.90;1720356;82;21002;-79
2020/12/30 07:02:03;;;;;;;26.23;16.42;;;;;;;6.08;77.86;101392.27;1720486;82;21026;-76
2020/12/30 07:04:33;;;;;;;25.67;17.97;;;;;;;6.10;77.74;101387.86;1720718;82;21150;-78
2020/12/30 07:07:20;;;;;;;26.35;16.65;;;;;;;6.10;77.71;101386.11;1739386;82;21181;-76
2020/12/30 07:09:49;;;;;;;26.95;16.70;;;;;;;6.14;77.62;101388.19;1719798;82;21054;-77
2020/12/30 07:12:18;;;;;;;28.52;16.02;;;;;;;6.17;77.56;101388.08;1739348;82;21690;-75
2020/12/30 07:14:49;;;;;;;24.30;16.07;;;;;;;6.21;77.52;101394.91;1720219;82;21034;-76
2020/12/30 07:17:19;;;;;;;30.65;17.67;;;;;;;6.25;77.30;101397.84;1697001;82;21099;-82
2020/12/30 07:19:48;;;;;;;27.70;16.70;;;;;;;6.31;77.22;101398.09;1674876;82;21066;-83
2020/12/30 07:22:16;;;;;;;26.70;17.10;;;;;;;6.35;77.11;101395.34;1721002;81;21022;-85
2020/12/30 07:24:57;;;;;;;26.35;15.68;;;;;;;6.42;76.97;101393.41;1722001;82;21292;-85
2020/12/30 07:27:28;;;;;;;23.15;14.20;;;;;;;6.49;76.68;101390.16;1722318;82;20962;-83
2020/12/30 07:29:57;;;;;;;23.47;14.80;;;;;;;6.56;76.47;101388.64;1722373;82;21180;-86
2020/12/30 07:32:24;;;;;;;27.85;16.10;;;;;;;6.64;76.31;101391.84;1721111;82;21524;-82
2020/12/30 07:34:52;;;;;;;29.65;17.95;;;;;;;6.70;76.11;101388.66;1721445;81;21054;-84
2020/12/30 07:37:22;;;;;;;27.82;16.95;;;;;;;6.79;75.97;101402.25;1721137;82;20983;-84
2020/12/30 07:39:50;;;;;;;27.35;16.82;;;;;;;6.89;75.71;101398.04;1720373;82;21010;-84
2020/12/30 07:42:23;;;;;;;28.05;17.05;;;;;;;7.00;75.41;101401.15;1720086;82;21239;-83
2020/12/30 07:44:56;;;;;;;23.98;15.55;;;;;;;7.10;75.02;101397.35;1717513;82;20974;-83
2020/12/30 07:47:26;;;;;;;27.27;15.00;;;;;;;7.18;74.73;101403.60;1717460;82;20979;-86
2020/12/30 07:50:01;;;;;;;24.60;15.88;;;;;;;7.22;74.56;101390.41;1718474;82;20962;-84
2020/12/30 07:52:29;;;;;;;23.87;15.72;;;;;;;7.29;74.39;101398.88;1717517;80;21006;-79
2020/12/30 07:54:57;;;;;;;24.55;16.02;;;;;;;7.36;74.21;101397.79;1717454;82;22771;-86
2020/12/30 07:57:25;;;;;;;26.07;16.57;;;;;;;7.44;74.00;101402.73;1717493;82;21571;-85
2020/12/30 07:59:55;;;;;;;27.27;17.02;;;;;;;7.50;73.77;101406.44;1745059;82;20974;-84
2020/12/30 08:02:24;;;;;;;25.92;15.83;;;;;;;7.52;73.48;101399.87;1717302;82;20943;-83
2020/12/30 08:05:01;;;;;;;21.77;14.45;;;;;;;7.54;73.36;101401.52;1718178;82;20942;-84
2020/12/30 08:07:31;;;;;;;23.77;15.50;;;;;;;7.54;73.34;101400.22;1718225;82;21009;-85
2020/12/30 08:10:00;;;;;;;23.18;15.85;;;;;;;7.58;73.27;101404.42;1717838;82;21021;-84
2020/12/30 08:12:28;;;;;;;25.08;17.07;;;;;;;7.60;73.17;101392.18;1717842;82;21021;-84
2020/12/30 08:14:57;;;;;;;30.00;18.65;;;;;;;7.64;72.95;101402.88;1717623;82;21033;-82
2020/12/30 08:17:25;;;;;;;29.67;18.15;;;;;;;7.63;72.97;101409.02;1717884;82;21490;-81
2020/12/30 08:19:53;;;;;;;27.35;17.07;;;;;;;7.64;72.90;101403.34;1717791;82;21396;-79
2020/12/30 08:22:26;;;;;;;24.43;17.07;;;;;;;7.66;72.97;101414.13;1745298;82;21388;-81
2020/12/30 08:24:59;;;;;;;27.15;15.98;;;;;;;7.74;72.84;101410.42;1719146;82;20928;-81
2020/12/30 08:27:29;;;;;;;26.02;16.67;;;;;;;7.81;72.65;101407.52;1720025;82;20939;-82
2020/12/30 08:30:00;;;;;;;27.20;16.97;;;;;;;7.89;72.46;101413.76;1719727;82;21089;-84
2020/12/30 08:32:38;;;;;;;29.95;16.75;;;;;;;7.98;72.25;101411.27;1718798;82;21179;-82
2020/12/30 08:35:17;;;;;;;24.23;15.70;;;;;;;8.07;72.04;101404.40;1717649;82;21073;-83
2020/12/30 08:37:52;;;;;;;23.60;15.28;;;;;;;8.16;71.91;101400.59;1717653;82;21563;-83
2020/12/30 08:40:25;;;;;;;27.48;16.70;;;;;;;8.21;71.71;101407.83;1717254;82;21022;-82
2020/12/30 08:43:16;;;;;;;29.15;15.65;;;;;;;8.20;71.40;101400.42;1720411;82;20970;-78
2020/12/30 08:45:53;;;;;;;23.20;16.23;;;;;;;8.18;71.47;101392.25;1722097;82;21132;-76
2020/12/30 08:48:22;;;;;;;26.42;16.32;;;;;;;8.18;71.58;101394.86;1722028;81;20970;-74
2020/12/30 08:50:50;;;;;;;22.75;15.43;;;;;;;8.19;71.80;101394.81;1722077;82;21021;-76
2020/12/30 08:53:39;;;;;;;21.65;15.05;;;;;;;8.25;71.71;101394.59;1722041;82;21041;-77
2020/12/30 08:56:08;;;;;;;21.73;15.03;;;;;;;8.32;71.41;101397.82;1721971;82;21002;-77
2020/12/30 08:58:36;;;;;;;25.00;16.80;;;;;;;8.35;71.32;101388.55;1722013;82;21187;-77
2020/12/30 09:01:20;;;;;;;28.10;17.42;;;;;;;8.37;71.36;101392.42;1721973;82;21029;-78
2020/12/30 09:03:48;;;;;;;24.40;15.35;;;;;;;8.36;71.32;101388.95;1722119;82;21022;-77
2020/12/30 09:06:28;;;;;;;28.35;16.12;;;;;;;8.38;71.29;101392.80;1722328;82;21605;-78
2020/12/30 09:08:56;;;;;;;25.62;15.85;;;;;;;8.39;71.36;101399.75;1722317;82;20935;-77
2020/12/30 09:11:24;;;;;;;26.45;15.98;;;;;;;8.44;71.34;101406.98;1722255;82;21152;-80
2020/12/30 09:13:52;;;;;;;25.20;14.33;;;;;;;8.42;71.14;101392.66;1722368;82;20966;-78
2020/12/30 09:16:20;;;;;;;24.35;15.65;;;;;;;8.42;71.16;101389.19;1722138;82;21046;-76
2020/12/30 09:18:49;;;;;;;26.77;16.55;;;;;;;8.45;71.11;101387.79;1722329;82;21579;-79
2020/12/30 09:21:25;;;;;;;24.12;14.35;;;;;;;8.44;71.13;101382.15;1722480;82;21010;-79
2020/12/30 09:23:52;;;;;;;18.73;13.20;;;;;;;8.44;71.05;101379.53;1722234;82;21186;-79
2020/12/30 09:26:28;;;;;;;23.75;15.40;;;;;;;8.45;70.97;101369.03;1722468;82;20966;-78
2020/12/30 09:28:57;;;;;;;18.02;13.03;;;;;;;8.46;70.91;101371.18;1722422;82;21113;-75
2020/12/30 09:31:24;;;;;;;20.48;13.90;;;;;;;8.44;70.70;101382.99;1722234;80;21480;-77
2020/12/30 09:33:52;;;;;;;21.85;14.50;;;;;;;8.39;70.76;101380.98;1722143;82;20922;-74
2020/12/30 09:36:21;;;;;;;27.77;17.10;;;;;;;8.34;70.88;101385.98;1749515;82;21325;-76
2020/12/30 09:38:55;;;;;;;23.12;13.93;;;;;;;8.32;71.01;101384.75;1722090;81;21737;-77
2020/12/30 09:41:23;;;;;;;23.60;15.30;;;;;;;8.32;71.00;101382.61;1722163;82;20963;-76
2020/12/30 09:43:51;;;;;;;26.40;16.50;;;;;;;8.28;70.99;101383.16;1717699;82;20982;-77
2020/12/30 09:46:21;;;;;;;21.93;14.87;;;;;;;8.26;71.16;101381.91;1744802;80;20946;-76
2020/12/30 09:48:49;;;;;;;23.40;14.58;;;;;;;8.28;71.21;101377.94;1717272;82;21170;-75
2020/12/30 09:51:17;;;;;;;19.05;13.65;;;;;;;8.32;71.20;101372.16;1718184;82;21411;-75
2020/12/30 09:53:47;;;;;;;21.30;15.25;;;;;;;8.37;71.11;101368.90;1718085;82;21412;-74
2020/12/30 09:56:15;;;;;;;21.37;13.90;;;;;;;8.42;70.98;101370.44;1718330;82;21602;-74
2020/12/30 09:58:44;;;;;;;20.40;14.90;;;;;;;8.46;70.76;101381.63;1717949;80;20979;-74
2020/12/30 10:01:11;;;;;;;21.55;14.80;;;;;;;8.48;70.71;101373.28;1718066;82;21165;-76
2020/12/30 10:03:39;;;;;;;20.35;14.63;;;;;;;8.48;70.58;101370.67;1718734;82;21029;-75
2020/12/30 10:06:11;;;;;;;22.87;14.07;;;;;;;8.48;70.54;101364.13;1717345;82;21042;-76
2020/12/30 10:08:40;;;;;;;25.32;15.72;;;;;;;8.52;70.44;101365.72;1717374;82;20974;-76
2020/12/30 10:11:09;;;;;;;18.48;12.78;;;;;;;8.57;70.48;101359.84;1717277;82;21029;-74
2020/12/30 10:13:37;;;;;;;17.70;12.45;;;;;;;8.63;70.36;101354.84;1717317;82;22593;-74
2020/12/30 10:16:04;;;;;;;23.62;13.35;;;;;;;8.71;70.25;101360.16;1717216;82;20963;-75
2020/12/30 10:18:32;;;;;;;21.90;14.30;;;;;;;8.78;70.08;101354.66;1717333;81;20978;-74
2020/12/30 10:21:00;;;;;;;19.62;13.13;;;;;;;8.83;69.79;101352.27;1717241;82;20971;-77
2020/12/30 10:23:28;;;;;;;26.73;17.80;;;;;;;8.89;69.74;101351.14;1717288;82;20994;-77
2020/12/30 10:25:56;;;;;;;22.35;13.93;;;;;;;8.93;69.54;101350.95;1717196;82;22094;-76
2020/12/30 10:28:24;;;;;;;21.25;14.23;;;;;;;8.95;69.34;101342.20;1717353;82;20950;-75
2020/12/30 10:30:52;;;;;;;22.05;12.80;;;;;;;8.96;69.31;101343.45;1717386;82;20930;-75
2020/12/30 10:33:20;;;;;;;22.45;13.72;;;;;;;8.98;69.33;101344.25;1717239;82;21022;-73
2020/12/30 10:35:48;;;;;;;22.65;14.47;;;;;;;9.00;69.36;101334.54;1717352;82;21587;-73
2020/12/30 10:38:16;;;;;;;17.55;11.73;;;;;;;9.03;69.20;101340.13;1717294;82;21175;-74
2020/12/30 10:40:44;;;;;;;22.00;13.58;;;;;;;9.04;68.71;101335.28;1717167;82;20971;-75
2020/12/30 10:43:12;;;;;;;18.60;12.13;;;;;;;9.03;68.96;101333.59;1719765;82;21388;-75
2020/12/30 10:45:40;;;;;;;31.07;21.20;;;;;;;9.03;69.02;101335.74;1722268;82;21590;-75
2020/12/30 10:48:09;;;;;;;19.50;14.45;;;;;;;9.04;69.01;101335.28;1722248;82;21001;-76
2020/12/30 10:50:37;;;;;;;21.80;13.90;;;;;;;9.05;68.96;101324.76;1722122;82;21597;-76
2020/12/30 10:53:05;;;;;;;20.00;13.30;;;;;;;9.08;68.91;101327.70;1722191;82;21512;-75
2020/12/30 10:55:33;;;;;;;22.15;12.95;;;;;;;9.12;68.91;101334.04;1722127;82;21069;-75
2020/12/30 10:58:01;;;;;;;20.25;13.78;;;;;;;9.18;68.69;101323.78;1721969;82;20950;-76
2020/12/30 11:00:29;;;;;;;23.27;16.02;;;;;;;9.23;68.64;101325.73;1722086;82;21115;-72
2020/12/30 11:02:57;;;;;;;20.37;13.45;;;;;;;9.27;68.49;101332.55;1722159;82;21980;-75
2020/12/30 11:05:25;;;;;;;26.82;15.35;;;;;;;9.30;68.21;101325.86;1722124;82;20962;-75
2020/12/30 11:07:53;;;;;;;26.33;16.20;;;;;;;9.29;68.17;101320.67;1722084;82;20926;-75
2020/12/30 11:10:22;;;;;;;23.83;15.30;;;;;;;9.28;68.16;101324.23;1722179;82;20954;-77
2020/12/30 11:12:50;;;;;;;18.07;11.55;;;;;;;9.30;68.19;101319.78;1722386;82;21566;-74
2020/12/30 11:15:18;;;;;;;22.02;13.25;;;;;;;9.34;67.98;101323.97;1721949;82;21985;-73
2020/12/30 11:17:46;;;;;;;23.07;12.25;;;;;;;9.34;67.86;101323.97;1722195;82;20978;-73
2020/12/30 11:20:13;;;;;;;18.37;12.78;;;;;;;9.35;67.86;101324.34;1722221;82;21381;-77
2020/12/30 11:22:41;;;;;;;20.68;13.65;;;;;;;9.33;67.84;101313.94;1721938;82;20927;-76
2020/12/30 11:25:10;;;;;;;20.43;13.60;;;;;;;9.32;67.89;101316.64;1721900;82;20990;-75
2020/12/30 11:27:40;;;;;;;21.85;13.50;;;;;;;9.32;67.80;101319.26;1722173;82;21145;-80
2020/12/30 11:30:08;;;;;;;23.47;14.05;;;;;;;9.25;67.83;101317.36;1721956;82;21025;-77
2020/12/30 11:32:37;;;;;;;18.55;12.78;;;;;;;9.19;67.98;101319.39;1722202;82;21125;-77